EHKD

De Kooy Airport

Den Helder, The Netherlands
METAR EHKD 140225Z AUTO 09009KT 050V120 9999 FEW008 OVC060 02/01 Q1023 BLU
Observed Flight Rules
Dec-14 @ 02:25 UTC (41 minutes ago) Visual Flight Rules
Wind Visibility Clouds
90° at 9 knots 10,000+ meters
  • Few at 800' AGL
  • Overcast at 6,000' AGL
Temperatures Readings
Current 2°C / 36°F
Dewpoint 1°C / 34°F
Humidity 93%
Altimeter 30.21" Hg
Pressure 1023 hPa
Elevation 14
METAR EHKD 140225Z AUTO 09009KT 050V120 9999 FEW008 OVC060 02/01 Q1023 BLU
Observed Flight Rules
Dec-14 @ 02:25 UTC
(41 minutes ago)
VFR
Wind Visibility
90° at 9 knots 10,000+ meters
Clouds
  • Few at 800' AGL
  • Overcast at 6,000' AGL
Temperature Dewpoint
2°C / 36°F 1°C / 34°F
Humidity Altimeter Pressure
93% 30.21" Hg 1023 hPa